Time;durP1;ratioP1;P1;durP2;ratioP2;P2;SDS_P1;SDS_P2;PMS_P1;PMS_P2;Temp;Humidity;BMP_temperature;BMP_pressure;BME280_temperature;BME280_humidity;BME280_pressure;Samples;Min_cycle;Max_cycle;Signal;HPM_P1;HPM_P2
2022/10/05 00:00:54;;;;;;;2.35;2.00;;;20.30;64.80;;;;;;5022622;28;43492;-59
2022/10/05 00:03:24;;;;;;;1.90;1.80;;;20.30;64.80;;;;;;5022384;28;43383;-59
2022/10/05 00:05:52;;;;;;;1.88;1.77;;;20.30;64.80;;;;;;5021226;28;44930;-59
2022/10/05 00:08:29;;;;;;;1.92;1.83;;;20.30;64.80;;;;;;5020793;28;43367;-59
2022/10/05 00:10:56;;;;;;;2.33;2.10;;;20.30;64.80;;;;;;5022965;28;43479;-59
2022/10/05 00:13:27;;;;;;;2.05;1.85;;;20.30;64.80;;;;;;5021916;28;43465;-59
2022/10/05 00:16:09;;;;;;;2.22;2.13;;;20.30;64.80;;;;;;5022569;28;45188;-59
2022/10/05 00:18:38;;;;;;;2.20;2.00;;;20.30;64.80;;;;;;5021364;28;43697;-59
2022/10/05 00:21:19;;;;;;;2.10;2.00;;;20.30;64.80;;;;;;5022553;28;43368;-59
2022/10/05 00:23:47;;;;;;;2.08;1.83;;;20.30;64.80;;;;;;5022440;28;43490;-59
2022/10/05 00:26:24;;;;;;;1.80;1.70;;;20.30;64.80;;;;;;5021273;28;43787;-59
2022/10/05 00:28:53;;;;;;;2.17;2.00;;;20.30;64.90;;;;;;5022293;28;43984;-59
2022/10/05 00:31:29;;;;;;;2.10;1.90;;;20.30;64.80;;;;;;5022309;28;44017;-59
2022/10/05 00:33:57;;;;;;;3.38;2.38;;;20.30;64.90;;;;;;5021938;28;43494;-59
2022/10/05 00:36:26;;;;;;;1.83;1.73;;;20.30;64.80;;;;;;5021625;28;43796;-59
2022/10/05 00:38:54;;;;;;;1.92;1.83;;;20.30;64.80;;;;;;5021998;28;43428;-59
2022/10/05 00:41:33;;;;;;;2.05;1.67;;;20.30;64.80;;;;;;5021568;28;43421;-59
2022/10/05 00:44:15;;;;;;;2.17;1.98;;;20.30;64.80;;;;;;5022554;28;43384;-59
2022/10/05 00:46:43;;;;;;;1.90;1.80;;;20.30;64.80;;;;;;5021434;28;44690;-59
2022/10/05 00:49:29;;;;;;;2.40;2.20;;;20.30;64.90;;;;;;5022258;28;43978;-59
2022/10/05 00:52:34;;;;;;;2.13;2.03;;;20.30;64.80;;;;;;5022314;28;43399;-59
2022/10/05 00:55:22;;;;;;;1.80;1.70;;;20.30;64.90;;;;;;5019915;28;43518;-59
2022/10/05 00:58:06;;;;;;;1.75;1.65;;;20.30;64.90;;;;;;5021780;28;43872;-60
2022/10/05 01:00:57;;;;;;;2.00;1.90;;;20.20;64.90;;;;;;5020203;28;44148;-59
2022/10/05 01:03:53;;;;;;;1.80;1.70;;;20.20;64.90;;;;;;5019179;28;43479;-59
2022/10/05 01:06:39;;;;;;;1.92;1.83;;;20.20;64.80;;;;;;5020853;28;43483;-59
2022/10/05 01:09:39;;;;;;;2.00;1.90;;;20.20;64.90;;;;;;5021501;28;43804;-59
2022/10/05 01:12:41;;;;;;;1.73;1.63;;;20.20;64.90;;;;;;5021902;28;43534;-59
2022/10/05 01:15:15;;;;;;;1.90;1.60;;;20.20;64.90;;;;;;5011929;28;43571;-59
2022/10/05 01:18:19;;;;;;;2.05;1.90;;;20.20;64.90;;;;;;5024637;28;43413;-59
2022/10/05 01:21:02;;;;;;;1.70;1.60;;;20.20;64.90;;;;;;5022238;28;44971;-59
2022/10/05 01:23:59;;;;;;;1.95;1.77;;;20.20;64.90;;;;;;5024052;28;44034;-60
2022/10/05 01:27:08;;;;;;;1.80;1.70;;;20.20;64.90;;;;;;5024726;28;43423;-59
2022/10/05 01:29:47;;;;;;;1.50;1.40;;;20.20;64.90;;;;;;5013079;28;43560;-59
2022/10/05 01:32:30;;;;;;;1.80;1.70;;;20.20;65.00;;;;;;5024716;28;44003;-59
2022/10/05 01:35:24;;;;;;;2.10;1.90;;;20.20;65.00;;;;;;5024968;28;43431;-59
2022/10/05 01:38:00;;;;;;;1.52;1.42;;;20.20;64.90;;;;;;5022975;28;43531;-59
2022/10/05 01:40:38;;;;;;;1.73;1.60;;;20.20;64.90;;;;;;5019558;28;44042;-59
2022/10/05 01:43:38;;;;;;;1.90;1.80;;;20.20;64.90;;;;;;5019171;28;43992;-59
2022/10/05 01:46:32;;;;;;;2.00;1.58;;;20.20;64.90;;;;;;5020557;28;43447;-59
2022/10/05 01:49:17;;;;;;;1.70;1.60;;;20.20;64.90;;;;;;5023139;28;43435;-59
2022/10/05 01:52:03;;;;;;;1.70;1.60;;;20.20;64.90;;;;;;5024201;28;43496;-59
2022/10/05 01:54:57;;;;;;;1.70;1.60;;;20.20;64.90;;;;;;5036450;28;44921;-59
2022/10/05 01:57:44;;;;;;;1.45;1.35;;;20.20;65.00;;;;;;5007048;28;43724;-59
2022/10/05 02:00:18;;;;;;;1.80;1.70;;;20.20;65.00;;;;;;5023354;28;43517;-59
2022/10/05 02:03:03;;;;;;;1.60;1.50;;;20.20;65.00;;;;;;5023504;28;43496;-59
2022/10/05 02:05:34;;;;;;;1.40;1.40;;;20.20;65.00;;;;;;5021215;28;44031;-59
2022/10/05 02:08:13;;;;;;;1.33;1.33;;;20.10;64.90;;;;;;5022395;28;44002;-59
2022/10/05 02:10:49;;;;;;;1.60;1.50;;;20.10;64.90;;;;;;5035234;28;43410;-59
2022/10/05 02:13:43;;;;;;;1.73;1.63;;;20.10;64.90;;;;;;5023713;28;43469;-59
2022/10/05 02:16:15;;;;;;;1.50;1.40;;;20.10;64.80;;;;;;5005250;28;44682;-59
2022/10/05 02:18:51;;;;;;;1.60;1.50;;;20.10;65.00;;;;;;5023463;28;43454;-59
2022/10/05 02:21:20;;;;;;;1.63;1.52;;;20.10;64.90;;;;;;5024069;28;43462;-59
2022/10/05 02:23:53;;;;;;;1.70;1.60;;;20.10;64.90;;;;;;5024278;28;43611;-59
2022/10/05 02:26:23;;;;;;;1.63;1.40;;;20.10;64.90;;;;;;5022023;28;44858;-59
2022/10/05 02:29:04;;;;;;;1.40;1.30;;;20.10;64.90;;;;;;5022217;28;44189;-59
2022/10/05 02:31:35;;;;;;;;;;;20.10;64.80;;;;;;5022490;28;43466;-59
2022/10/05 02:34:24;;;;;;;1.70;1.60;;;20.10;64.90;;;;;;5022092;28;43434;-59
2022/10/05 02:37:28;;;;;;;1.70;1.60;;;20.10;64.90;;;;;;5021951;28;44694;-59
2022/10/05 02:39:58;;;;;;;;;;;20.10;64.90;;;;;;5021326;28;43510;-59
2022/10/05 02:42:51;;;;;;;1.50;1.40;;;20.10;65.60;;;;;;5022783;28;43450;-59
2022/10/05 02:46:07;;;;;;;1.75;1.60;;;20.10;65.00;;;;;;5021936;28;43479;-59
2022/10/05 02:49:28;;;;;;;1.50;1.42;;;20.10;65.00;;;;;;5036742;28;44027;-59
2022/10/05 02:52:10;;;;;;;1.42;1.30;;;20.10;65.00;;;;;;5001277;28;43558;-59
2022/10/05 02:55:02;;;;;;;1.85;1.67;;;20.10;65.20;;;;;;4984745;28;43491;-59
2022/10/05 02:57:38;;;;;;;1.50;1.40;;;20.10;65.00;;;;;;5009354;28;43695;-59
2022/10/05 03:00:12;;;;;;;1.70;1.60;;;20.10;65.00;;;;;;5022081;28;44034;-59
2022/10/05 03:02:43;;;;;;;1.30;1.30;;;20.10;65.00;;;;;;5021700;28;43285;-59
2022/10/05 03:05:32;;;;;;;1.60;1.50;;;20.10;65.10;;;;;;5021608;28;43480;-60
2022/10/05 03:08:19;;;;;;;1.50;1.40;;;20.10;65.00;;;;;;5006065;28;43456;-59
2022/10/05 03:10:55;;;;;;;1.73;1.50;;;20.10;65.00;;;;;;5004936;28;43681;-59
2022/10/05 03:13:26;;;;;;;2.35;1.55;;;20.10;65.10;;;;;;5021821;28;43389;-59
2022/10/05 03:16:16;;;;;;;1.70;1.60;;;20.10;65.10;;;;;;5021083;28;43436;-59
2022/10/05 03:19:11;;;;;;;1.85;1.75;;;20.10;65.00;;;;;;5021403;28;43434;-59
2022/10/05 03:22:00;;;;;;;1.63;1.52;;;20.10;65.10;;;;;;5010715;28;43880;-59
2022/10/05 03:24:51;;;;;;;1.75;1.52;;;20.10;65.00;;;;;;5021127;28;43491;-59
2022/10/05 03:27:45;;;;;;;1.50;1.40;;;20.10;65.10;;;;;;5021764;28;43425;-59
2022/10/05 03:30:17;;;;;;;1.67;1.58;;;20.10;65.10;;;;;;5023027;28;43507;-59
2022/10/05 03:33:18;;;;;;;1.60;1.50;;;20.10;65.10;;;;;;5021206;28;43867;-59
2022/10/05 03:35:58;;;;;;;1.60;1.50;;;20.00;65.00;;;;;;5022317;28;43688;-59
2022/10/05 03:38:28;;;;;;;1.80;1.70;;;20.00;65.10;;;;;;5022030;28;43494;-59
2022/10/05 03:41:34;;;;;;;1.60;1.50;;;20.00;65.10;;;;;;5021917;28;43426;-59
2022/10/05 03:44:15;;;;;;;1.73;1.63;;;20.00;65.00;;;;;;5011808;28;43817;-59
2022/10/05 03:47:11;;;;;;;2.13;1.70;;;20.10;65.10;;;;;;5019082;28;43535;-59
2022/10/05 03:50:10;;;;;;;1.73;1.63;;;20.10;65.10;;;;;;5020002;28;43481;-59
2022/10/05 03:53:01;;;;;;;1.67;1.58;;;20.00;65.10;;;;;;5011993;28;43543;-59
2022/10/05 03:55:44;;;;;;;1.80;1.70;;;20.00;65.10;;;;;;5022044;28;45094;-59
2022/10/05 03:58:25;;;;;;;1.60;1.50;;;20.00;65.10;;;;;;5020540;28;43484;-59
2022/10/05 04:01:00;;;;;;;1.80;1.70;;;20.00;65.10;;;;;;5009802;28;43520;-59
2022/10/05 04:03:39;;;;;;;1.70;1.60;;;20.00;65.10;;;;;;5020793;28;43479;-59
2022/10/05 04:06:19;;;;;;;1.60;1.50;;;20.00;65.10;;;;;;5020518;28;44941;-59
2022/10/05 04:08:59;;;;;;;1.50;1.40;;;20.00;65.10;;;;;;5022569;28;43508;-59
2022/10/05 04:11:41;;;;;;;1.70;1.60;;;20.00;65.10;;;;;;5022068;28;43396;-59
2022/10/05 04:14:26;;;;;;;1.63;1.52;;;20.00;65.10;;;;;;5035255;28;43470;-59
2022/10/05 04:17:01;;;;;;;1.95;1.85;;;20.00;65.10;;;;;;5020521;28;44697;-59
2022/10/05 04:20:01;;;;;;;1.67;1.58;;;20.00;65.10;;;;;;5020096;28;43352;-59
2022/10/05 04:22:34;;;;;;;1.88;1.77;;;20.00;65.00;;;;;;5006580;28;43553;-59
2022/10/05 04:25:28;;;;;;;3.60;1.60;;;20.00;65.10;;;;;;5022004;28;43506;-59
2022/10/05 04:28:01;;;;;;;1.60;1.50;;;20.00;65.00;;;;;;5019565;28;43986;-59
2022/10/05 04:30:31;;;;;;;1.20;1.20;;;20.00;65.10;;;;;;5021725;28;44116;-59
2022/10/05 04:32:59;;;;;;;1.33;1.23;;;20.00;65.10;;;;;;5022334;28;43457;-59
2022/10/05 04:35:31;;;;;;;1.50;1.40;;;20.00;65.00;;;;;;5020470;28;43380;-58
2022/10/05 04:38:02;;;;;;;1.58;1.48;;;20.00;65.10;;;;;;5020880;28;44194;-59
2022/10/05 04:40:44;;;;;;;1.50;1.40;;;20.00;65.10;;;;;;5020465;28;43485;-59
2022/10/05 04:43:27;;;;;;;1.45;1.35;;;20.00;65.00;;;;;;5021066;28;43494;-58
2022/10/05 04:46:17;;;;;;;1.50;1.40;;;20.00;65.00;;;;;;5021916;28;44147;-59
2022/10/05 04:48:57;;;;;;;1.27;1.27;;;20.00;65.00;;;;;;5019676;28;44027;-59
2022/10/05 04:51:37;;;;;;;1.58;1.48;;;20.00;65.10;;;;;;5023265;28;43512;-59
2022/10/05 04:54:18;;;;;;;1.13;1.13;;;20.00;65.20;;;;;;5020326;28;43369;-59
2022/10/05 04:56:52;;;;;;;1.50;1.40;;;20.00;65.10;;;;;;5028757;28;43502;-59
2022/10/05 04:59:38;;;;;;;1.50;1.40;;;20.00;65.10;;;;;;5017434;28;44038;-59
2022/10/05 05:02:37;;;;;;;1.40;1.30;;;20.00;65.20;;;;;;5022826;28;43466;-59
2022/10/05 05:05:22;;;;;;;1.35;1.30;;;20.00;65.10;;;;;;5024075;28;43551;-60
2022/10/05 05:08:22;;;;;;;1.23;1.23;;;20.00;65.10;;;;;;5015559;28;43661;-59
2022/10/05 05:11:06;;;;;;;2.10;1.50;;;20.00;65.10;;;;;;5023508;28;43843;-59
2022/10/05 05:13:42;;;;;;;1.67;1.60;;;20.00;65.10;;;;;;5023210;28;43462;-59
2022/10/05 05:16:22;;;;;;;1.42;1.35;;;20.00;65.10;;;;;;5023674;28;43483;-59
2022/10/05 05:19:11;;;;;;;1.40;1.30;;;19.90;65.10;;;;;;5024778;28;43491;-59
2022/10/05 05:21:48;;;;;;;1.70;1.60;;;20.00;65.10;;;;;;5039767;28;44059;-59
2022/10/05 05:24:37;;;;;;;1.75;1.42;;;19.90;65.10;;;;;;5022004;28;43437;-59
2022/10/05 05:27:20;;;;;;;1.70;1.60;;;19.90;65.10;;;;;;5055909;28;43460;-59
2022/10/05 05:30:10;;;;;;;1.40;1.30;;;19.90;65.20;;;;;;5022949;28;43473;-59
2022/10/05 05:32:54;;;;;;;1.60;1.50;;;20.00;65.20;;;;;;5022905;28;45052;-58
2022/10/05 05:35:40;;;;;;;1.38;1.33;;;19.90;65.20;;;;;;5023984;28;43641;-58
2022/10/05 05:38:50;;;;;;;1.70;1.60;;;19.90;65.20;;;;;;5022518;28;43423;-58
2022/10/05 05:41:24;;;;;;;1.57;1.47;;;19.90;65.30;;;;;;5010011;28;43583;-58
2022/10/05 05:44:15;;;;;;;1.80;1.70;;;19.90;65.20;;;;;;5040106;28;43797;-58
2022/10/05 05:46:55;;;;;;;1.48;1.38;;;19.90;65.20;;;;;;5022207;28;44095;-59
2022/10/05 05:49:49;;;;;;;1.85;1.67;;;19.90;65.30;;;;;;5021623;28;43442;-59
2022/10/05 05:52:33;;;;;;;1.50;1.35;;;19.90;65.30;;;;;;5022929;28;43542;-59
2022/10/05 05:55:16;;;;;;;1.70;1.60;;;19.90;65.30;;;;;;5024235;28;43911;-58
2022/10/05 05:57:57;;;;;;;1.85;1.60;;;20.00;65.30;;;;;;5022215;28;43349;-58
2022/10/05 06:00:43;;;;;;;1.73;1.63;;;19.90;65.30;;;;;;5021819;28;43473;-58
2022/10/05 06:03:20;;;;;;;2.65;1.70;;;19.90;65.30;;;;;;5030379;28;43407;-59
2022/10/05 06:05:52;;;;;;;1.77;1.67;;;19.90;65.20;;;;;;5021956;28;44672;-59
2022/10/05 06:08:26;;;;;;;;;;;19.90;65.20;;;;;;5022595;28;43771;-59
2022/10/05 06:11:16;;;;;;;1.38;1.27;;;19.90;65.20;;;;;;5023776;28;43540;-59
2022/10/05 06:13:45;;;;;;;1.63;1.50;;;19.90;65.20;;;;;;5023933;28;44118;-59
2022/10/05 06:16:27;;;;;;;1.58;1.48;;;19.90;65.20;;;;;;5022604;28;44695;-59
2022/10/05 06:18:59;;;;;;;2.40;1.67;;;19.90;65.10;;;;;;5022188;28;43615;-59
2022/10/05 06:21:44;;;;;;;1.70;1.60;;;19.90;65.10;;;;;;5021851;28;43450;-59
2022/10/05 06:24:17;;;;;;;1.80;1.70;;;20.00;65.10;;;;;;5023323;28;43529;-59
2022/10/05 06:27:22;;;;;;;1.40;1.40;;;20.00;65.10;;;;;;5021980;28;45236;-59
2022/10/05 06:30:12;;;;;;;1.70;1.60;;;20.00;65.20;;;;;;5036220;28;44102;-59
2022/10/05 06:32:49;;;;;;;1.65;1.55;;;20.00;65.20;;;;;;5013672;28;43474;-60
2022/10/05 06:35:37;;;;;;;1.38;1.30;;;20.00;65.20;;;;;;5021823;28;43561;-59
2022/10/05 06:38:22;;;;;;;1.67;1.58;;;20.00;65.20;;;;;;5025959;28;43764;-58
2022/10/05 06:41:14;;;;;;;2.00;1.90;;;20.00;65.10;;;;;;5032772;28;43927;-59
2022/10/05 06:44:09;;;;;;;1.50;1.40;;;20.00;65.10;;;;;;5054377;28;43402;-59
2022/10/05 06:46:43;;;;;;;1.92;1.80;;;20.00;65.10;;;;;;5022816;28;43534;-59
2022/10/05 06:49:50;;;;;;;1.77;1.67;;;20.00;65.00;;;;;;5021273;28;44882;-59
2022/10/05 06:52:58;;;;;;;2.17;1.98;;;19.90;65.20;;;;;;5022394;28;43433;-59
2022/10/05 06:55:41;;;;;;;2.38;1.88;;;20.00;65.20;;;;;;5019959;28;43388;-59
2022/10/05 06:58:47;;;;;;;2.45;1.80;;;19.90;65.10;;;;;;5021778;28;43487;-59
2022/10/05 07:01:56;;;;;;;1.70;1.60;;;19.90;65.20;;;;;;5015282;28;43805;-59
2022/10/05 07:04:46;;;;;;;1.60;1.50;;;19.90;65.20;;;;;;5026736;28;43951;-58
2022/10/05 07:07:19;;;;;;;1.98;1.55;;;19.90;65.40;;;;;;5020018;28;43442;-59
2022/10/05 07:09:46;;;;;;;1.83;1.63;;;19.90;65.30;;;;;;5021518;28;43618;-59
2022/10/05 07:12:51;;;;;;;1.50;1.40;;;19.90;65.30;;;;;;5027815;28;44315;-59
2022/10/05 07:15:26;;;;;;;1.90;1.80;;;19.90;65.60;;;;;;5019091;28;43437;-59
2022/10/05 07:18:08;;;;;;;1.60;1.50;;;19.90;65.30;;;;;;5021812;28;43499;-59
2022/10/05 07:21:01;;;;;;;2.03;1.83;;;19.90;65.30;;;;;;5041068;28;43558;-60
2022/10/05 07:23:44;;;;;;;1.70;1.60;;;20.00;65.40;;;;;;5004398;28;46052;-59
2022/10/05 07:26:29;;;;;;;9.18;6.57;;;19.90;65.30;;;;;;5021720;28;44008;-59
2022/10/05 07:29:06;;;;;;;5.32;4.82;;;19.90;65.30;;;;;;5052678;28;43449;-59
2022/10/05 07:31:34;;;;;;;6.18;5.35;;;19.90;65.50;;;;;;5028507;28;43495;-60
2022/10/05 07:34:14;;;;;;;6.65;5.30;;;20.00;65.50;;;;;;5021332;28;43744;-61
2022/10/05 07:39:57;;;;;;;5.75;5.10;;;20.10;65.50;;;;;;5011391;28;43455;-60
2022/10/05 07:42:55;;;;;;;5.80;4.50;;;20.10;65.30;;;;;;5016250;28;43539;-60
2022/10/05 07:45:54;;;;;;;4.88;4.38;;;20.20;65.40;;;;;;5145579;27;43476;-59
2022/10/05 07:48:34;;;;;;;5.43;4.15;;;20.40;65.40;;;;;;5110795;27;43480;-59
2022/10/05 07:51:14;;;;;;;5.50;3.80;;;20.50;65.40;;;;;;5130705;27;43467;-59
2022/10/05 07:54:05;;;;;;;4.77;4.27;;;20.60;65.20;;;;;;5093720;27;43516;-59
2022/10/05 07:56:47;;;;;;;3.60;3.30;;;20.70;64.90;;;;;;5109895;27;44645;-59
2022/10/05 07:59:38;;;;;;;5.72;3.90;;;20.80;64.70;;;;;;5127864;27;43418;-59
2022/10/05 08:02:21;;;;;;;3.90;3.47;;;20.90;64.50;;;;;;5114163;27;43450;-59
2022/10/05 08:05:01;;;;;;;3.65;3.35;;;21.00;64.40;;;;;;5134133;27;44033;-59
2022/10/05 08:07:33;;;;;;;3.75;3.40;;;21.10;64.10;;;;;;5132699;27;43853;-59
2022/10/05 08:10:19;;;;;;;3.67;3.10;;;21.20;64.00;;;;;;5131594;27;43707;-58
2022/10/05 08:13:20;;;;;;;3.40;3.10;;;21.20;63.90;;;;;;5127187;27;43440;-59
2022/10/05 08:15:55;;;;;;;4.03;3.00;;;21.30;63.80;;;;;;5105386;27;43488;-58
2022/10/05 08:18:44;;;;;;;3.20;2.90;;;21.40;64.10;;;;;;5131369;27;44927;-59
2022/10/05 08:21:15;;;;;;;3.72;3.10;;;21.40;63.90;;;;;;5133648;27;43456;-59
2022/10/05 08:23:57;;;;;;;;;;;21.50;63.80;;;;;;5116092;27;43484;-60
2022/10/05 08:27:15;;;;;;;3.20;2.78;;;21.60;63.60;;;;;;5128837;27;43493;-59
2022/10/05 08:30:09;;;;;;;3.72;2.80;;;21.60;63.60;;;;;;5063588;28;43739;-61
2022/10/05 08:33:00;;;;;;;5.10;2.75;;;21.60;63.50;;;;;;5067370;28;43614;-58
2022/10/05 08:35:33;;;;;;;3.88;2.53;;;21.70;63.40;;;;;;5101723;27;43488;-60
2022/10/05 08:38:09;;;;;;;2.65;2.40;;;21.70;63.50;;;;;;5133176;27;43584;-59
2022/10/05 08:40:58;;;;;;;3.15;2.40;;;21.70;63.40;;;;;;5129128;27;44961;-60
2022/10/05 08:43:31;;;;;;;3.80;2.67;;;21.70;63.30;;;;;;5129424;27;43577;-58
2022/10/05 08:46:23;;;;;;;4.35;2.67;;;21.80;63.10;;;;;;5125633;27;43438;-58
2022/10/05 08:49:21;;;;;;;2.40;2.20;;;21.80;63.20;;;;;;5129790;27;43459;-59
2022/10/05 08:52:22;;;;;;;2.67;2.35;;;21.90;63.10;;;;;;5110318;27;47042;-59
2022/10/05 08:55:05;;;;;;;2.75;2.22;;;21.90;63.00;;;;;;5055077;27;43563;-59
2022/10/05 08:57:47;;;;;;;2.55;2.10;;;21.90;63.00;;;;;;5109343;27;43471;-58
2022/10/05 09:00:30;;;;;;;2.55;2.35;;;22.00;62.90;;;;;;5093192;27;43748;-59
2022/10/05 09:03:33;;;;;;;4.38;2.30;;;22.00;62.80;;;;;;5121024;27;43829;-57
2022/10/05 09:06:14;;;;;;;2.60;2.30;;;22.00;62.70;;;;;;5109134;27;43481;-59
2022/10/05 09:08:51;;;;;;;3.13;2.22;;;22.10;62.80;;;;;;5111860;27;44018;-60
2022/10/05 09:11:33;;;;;;;2.72;2.00;;;22.10;62.80;;;;;;5113838;27;43538;-57
2022/10/05 09:14:19;;;;;;;3.75;1.92;;;22.10;62.60;;;;;;5116074;27;44062;-58
2022/10/05 09:17:10;;;;;;;2.80;1.60;;;22.20;62.40;;;;;;5113083;27;43678;-58
2022/10/05 09:19:56;;;;;;;2.92;1.65;;;22.20;62.30;;;;;;5104150;27;43542;-58
2022/10/05 09:22:34;;;;;;;2.45;1.60;;;22.20;62.30;;;;;;5120293;27;43488;-58
2022/10/05 09:25:21;;;;;;;2.47;1.92;;;22.20;62.30;;;;;;5101280;27;46168;-58
2022/10/05 09:27:57;;;;;;;1.92;1.42;;;22.30;62.40;;;;;;5115650;27;43392;-58
2022/10/05 09:30:46;;;;;;;2.95;1.30;;;22.30;62.30;;;;;;5115233;27;43415;-58
2022/10/05 09:33:38;;;;;;;1.80;1.60;;;22.30;62.30;;;;;;5101508;27;43489;-58
2022/10/05 09:36:37;;;;;;;1.98;1.45;;;22.30;62.10;;;;;;5082372;27;44160;-58
2022/10/05 09:39:04;;;;;;;2.38;1.48;;;22.30;62.10;;;;;;5115376;27;43997;-58
2022/10/05 09:41:53;;;;;;;1.70;1.60;;;22.40;62.20;;;;;;5119623;27;43475;-58
2022/10/05 09:44:44;;;;;;;2.15;1.45;;;22.40;62.20;;;;;;5086014;27;43522;-58
2022/10/05 09:47:30;;;;;;;;;;;22.40;62.00;;;;;;5081285;27;44058;-58
2022/10/05 09:50:19;;;;;;;2.20;1.67;;;22.40;62.10;;;;;;5096674;27;43505;-58
2022/10/05 09:52:55;;;;;;;2.20;1.30;;;22.50;62.10;;;;;;5097525;27;43506;-59
2022/10/05 09:55:38;;;;;;;1.48;1.38;;;22.50;62.10;;;;;;5090260;27;43533;-59
2022/10/05 09:58:13;;;;;;;1.70;1.42;;;22.50;62.00;;;;;;5060160;27;45141;-60
2022/10/05 10:01:11;;;;;;;1.55;1.40;;;22.60;61.90;;;;;;5095466;27;43464;-60
2022/10/05 10:04:14;;;;;;;1.92;1.38;;;22.70;61.90;;;;;;5097516;27;43456;-59
2022/10/05 10:07:06;;;;;;;1.52;1.42;;;22.80;61.90;;;;;;5095189;27;43541;-58
2022/10/05 10:09:38;;;;;;;1.48;1.25;;;22.80;61.70;;;;;;5095847;27;43834;-59
2022/10/05 10:12:47;;;;;;;1.67;1.17;;;22.80;61.70;;;;;;5093805;27;43458;-59
2022/10/05 10:15:30;;;;;;;1.60;1.50;;;22.90;61.60;;;;;;5061962;27;43551;-59
2022/10/05 10:18:33;;;;;;;1.40;1.30;;;23.00;62.20;;;;;;5058878;27;43476;-60
2022/10/05 10:21:19;;;;;;;3.08;1.33;;;23.00;61.50;;;;;;5050675;27;43676;-59
2022/10/05 10:24:15;;;;;;;1.30;1.20;;;23.00;61.50;;;;;;5099406;27;43485;-59
2022/10/05 10:27:11;;;;;;;2.33;1.40;;;23.00;61.30;;;;;;5079544;27;43520;-59
2022/10/05 10:30:17;;;;;;;1.50;1.40;;;23.10;61.40;;;;;;5102329;27;43446;-60
2022/10/05 10:32:55;;;;;;;2.05;1.45;;;23.10;61.40;;;;;;5064265;28;43995;-60
2022/10/05 10:35:58;;;;;;;2.10;1.60;;;23.00;61.30;;;;;;5077692;27;43528;-59
2022/10/05 10:38:35;;;;;;;1.38;1.20;;;23.10;61.40;;;;;;5092094;27;43590;-60
2022/10/05 10:41:08;;;;;;;1.67;1.45;;;23.00;61.40;;;;;;5079400;27;43459;-59
2022/10/05 10:43:38;;;;;;;1.83;1.38;;;23.00;61.40;;;;;;5100991;27;43778;-59
2022/10/05 10:46:22;;;;;;;1.80;1.70;;;23.00;61.40;;;;;;5119003;27;43410;-58
2022/10/05 10:49:08;;;;;;;1.42;1.33;;;23.00;61.40;;;;;;5115401;27;43955;-60
2022/10/05 10:51:51;;;;;;;1.70;1.60;;;23.00;61.40;;;;;;5075360;27;43470;-59
2022/10/05 10:54:30;;;;;;;1.92;1.58;;;23.00;62.20;;;;;;5111492;27;43790;-59
2022/10/05 10:57:13;;;;;;;1.70;1.60;;;23.00;61.60;;;;;;5086453;27;43473;-59
2022/10/05 11:00:07;;;;;;;2.63;1.60;;;22.90;61.50;;;;;;5104641;27;43433;-59
2022/10/05 11:03:04;;;;;;;2.13;1.25;;;23.00;61.60;;;;;;5071744;27;43506;-59
2022/10/05 11:05:58;;;;;;;1.88;1.40;;;22.90;61.60;;;;;;5097668;27;43928;-58
2022/10/05 11:08:26;;;;;;;1.50;1.40;;;22.90;62.50;;;;;;5108360;27;43549;-59
2022/10/05 11:11:16;;;;;;;1.65;1.50;;;22.90;61.70;;;;;;5096205;27;43457;-59
2022/10/05 11:14:02;;;;;;;2.25;1.50;;;22.90;61.70;;;;;;5120281;27;43414;-59
2022/10/05 11:17:30;;;;;;;1.90;1.40;;;22.80;61.50;;;;;;5111001;27;43797;-59
2022/10/05 11:20:18;;;;;;;1.60;1.50;;;22.80;61.50;;;;;;5012790;28;43488;-58
2022/10/05 11:23:06;;;;;;;1.98;1.50;;;22.70;61.80;;;;;;5115951;27;43466;-59
2022/10/05 11:26:05;;;;;;;1.23;1.13;;;22.70;61.90;;;;;;5106523;27;43347;-59
2022/10/05 11:28:51;;;;;;;2.85;1.23;;;22.70;61.90;;;;;;5113759;27;44113;-58
2022/10/05 11:31:22;;;;;;;1.92;1.40;;;22.70;61.90;;;;;;5116987;27;43417;-58
2022/10/05 11:33:59;;;;;;;1.63;1.42;;;22.70;62.00;;;;;;5101269;27;43442;-59
2022/10/05 11:37:04;;;;;;;1.52;1.40;;;22.60;61.90;;;;;;5090706;27;43527;-58
2022/10/05 11:39:42;;;;;;;1.95;1.70;;;22.60;62.00;;;;;;5114592;27;43673;-59
2022/10/05 11:42:34;;;;;;;1.30;1.20;;;22.60;62.10;;;;;;5117677;27;43582;-58
2022/10/05 11:45:14;;;;;;;1.60;1.33;;;22.50;62.20;;;;;;5102399;27;43415;-59
2022/10/05 11:48:15;;;;;;;2.08;1.50;;;22.40;62.20;;;;;;5113425;27;43470;-59
2022/10/05 11:50:56;;;;;;;1.60;1.50;;;22.40;62.30;;;;;;5114524;27;43813;-59
2022/10/05 11:53:31;;;;;;;;;;;22.40;62.50;;;;;;5098179;27;43446;-58
2022/10/05 11:56:22;;;;;;;1.98;1.60;;;22.30;62.40;;;;;;5116472;27;43542;-58
2022/10/05 11:58:59;;;;;;;1.67;1.58;;;22.30;62.90;;;;;;5118872;27;43584;-58
2022/10/05 12:01:56;;;;;;;1.40;1.30;;;22.30;62.60;;;;;;5116894;27;43861;-58
2022/10/05 12:04:51;;;;;;;2.80;1.70;;;22.30;62.60;;;;;;5111609;27;43449;-58
2022/10/05 12:07:34;;;;;;;1.77;1.48;;;22.30;62.70;;;;;;5116885;27;43383;-58
2022/10/05 12:10:13;;;;;;;1.90;1.40;;;22.30;62.40;;;;;;5100701;27;43448;-59
2022/10/05 12:13:12;;;;;;;1.60;1.50;;;22.30;62.40;;;;;;5110781;27;44255;-59
2022/10/05 12:15:46;;;;;;;3.17;1.50;;;22.30;62.70;;;;;;5063835;27;43496;-58
2022/10/05 12:18:22;;;;;;;1.40;1.30;;;22.30;62.30;;;;;;5115890;27;43473;-58
2022/10/05 12:21:06;;;;;;;1.50;1.40;;;22.20;62.30;;;;;;5118459;27;43406;-58
2022/10/05 12:24:07;;;;;;;1.77;1.33;;;22.20;62.30;;;;;;5109013;27;44147;-58
2022/10/05 12:27:11;;;;;;;2.17;1.30;;;22.20;62.20;;;;;;5110086;27;43480;-58
2022/10/05 12:30:25;;;;;;;1.95;1.40;;;22.20;62.30;;;;;;5095397;27;43533;-58
2022/10/05 12:33:18;;;;;;;2.42;1.52;;;22.20;62.20;;;;;;5122754;27;43510;-58
2022/10/05 12:36:00;;;;;;;1.63;1.40;;;22.20;62.20;;;;;;5118260;27;43788;-58
2022/10/05 12:38:43;;;;;;;1.50;1.40;;;22.20;62.20;;;;;;5102620;27;43595;-59
2022/10/05 12:41:17;;;;;;;3.22;1.20;;;22.20;62.10;;;;;;5113605;27;43501;-58
2022/10/05 12:44:03;;;;;;;1.25;1.20;;;22.20;62.10;;;;;;5118549;27;43474;-58
2022/10/05 12:47:00;;;;;;;2.03;1.50;;;22.20;62.10;;;;;;5102137;27;43812;-58
2022/10/05 12:49:45;;;;;;;1.67;1.40;;;22.20;62.10;;;;;;5115627;27;43456;-59
2022/10/05 12:52:33;;;;;;;1.30;1.08;;;22.20;62.10;;;;;;5115316;27;43431;-58
2022/10/05 12:55:14;;;;;;;1.35;1.25;;;22.20;62.20;;;;;;5081578;27;43551;-58
2022/10/05 12:57:56;;;;;;;1.38;1.05;;;22.10;62.20;;;;;;5119852;27;43815;-59
2022/10/05 13:00:24;;;;;;;1.10;1.10;;;22.10;62.30;;;;;;5115706;27;43530;-58
2022/10/05 13:03:07;;;;;;;1.55;1.30;;;22.10;62.30;;;;;;5115096;27;43403;-58
2022/10/05 13:05:57;;;;;;;1.25;1.15;;;22.00;62.30;;;;;;5116517;27;43723;-59
2022/10/05 13:08:37;;;;;;;1.05;1.00;;;22.00;62.30;;;;;;5117391;27;44844;-59
2022/10/05 13:11:09;;;;;;;2.88;1.35;;;22.00;62.30;;;;;;5117771;27;43395;-59
2022/10/05 13:14:27;;;;;;;1.45;1.23;;;22.00;62.40;;;;;;5123241;27;44083;-58
2022/10/05 13:17:17;;;;;;;1.30;1.30;;;22.00;62.20;;;;;;5087252;27;43592;-59
2022/10/05 13:20:02;;;;;;;1.15;1.08;;;22.00;62.30;;;;;;5119848;27;43580;-58
2022/10/05 13:22:45;;;;;;;1.48;1.30;;;22.00;62.30;;;;;;5119985;27;43592;-60
2022/10/05 13:25:12;;;;;;;1.42;1.33;;;22.00;62.30;;;;;;5121752;27;43508;-58
2022/10/05 13:27:45;;;;;;;1.35;1.25;;;22.00;62.30;;;;;;5097473;27;43516;-58
2022/10/05 13:30:20;;;;;;;1.00;1.00;;;22.00;62.30;;;;;;5122885;27;43806;-58
2022/10/05 13:33:05;;;;;;;1.05;1.02;;;22.00;62.30;;;;;;5096865;27;43448;-58
2022/10/05 13:36:01;;;;;;;1.20;1.10;;;22.00;62.30;;;;;;5096736;27;43552;-58
2022/10/05 13:38:36;;;;;;;2.45;1.20;;;22.00;62.30;;;;;;5115743;27;43451;-59
2022/10/05 13:41:39;;;;;;;1.10;1.08;;;22.00;62.30;;;;;;5081496;27;45635;-58
2022/10/05 13:44:30;;;;;;;1.23;1.13;;;22.00;62.30;;;;;;5091927;27;43525;-59
2022/10/05 13:47:04;;;;;;;1.23;1.23;;;22.00;62.30;;;;;;5102182;27;43461;-58
2022/10/05 13:49:49;;;;;;;1.15;1.15;;;22.00;62.40;;;;;;5085081;27;43553;-59
2022/10/05 13:52:29;;;;;;;2.53;1.20;;;22.00;62.40;;;;;;5096945;27;44659;-59
2022/10/05 13:55:13;;;;;;;1.83;1.20;;;22.00;62.50;;;;;;5080359;27;43552;-58
2022/10/05 13:57:51;;;;;;;1.30;1.20;;;22.00;62.50;;;;;;5063007;27;43452;-58
2022/10/05 14:00:24;;;;;;;1.58;1.15;;;22.00;62.50;;;;;;5097790;27;43508;-58
2022/10/05 14:02:56;;;;;;;1.42;1.33;;;22.00;62.50;;;;;;5103925;27;44029;-58
2022/10/05 14:05:30;;;;;;;1.70;1.20;;;22.00;62.50;;;;;;5091047;27;45893;-58
2022/10/05 14:08:16;;;;;;;1.73;1.38;;;22.00;62.50;;;;;;5110784;27;43405;-58
2022/10/05 14:10:45;;;;;;;1.30;1.20;;;22.00;62.50;;;;;;5097669;27;43481;-59
2022/10/05 14:13:45;;;;;;;5.88;5.32;;;22.00;62.60;;;;;;5107304;27;43670;-59
2022/10/05 14:16:24;;;;;;;7.03;5.85;;;22.00;62.60;;;;;;5083468;27;44919;-58
2022/10/05 14:19:17;;;;;;;2.88;2.50;;;22.00;62.70;;;;;;5106335;27;43458;-58
2022/10/05 14:22:21;;;;;;;4.03;3.13;;;22.00;62.70;;;;;;5105757;27;43425;-60